createdAt,value
2022-11-24T00:02:26.339Z,96774.17
2022-11-24T00:04:57.671Z,96778.27
2022-11-24T00:07:28.757Z,96777.34
2022-11-24T00:09:59.740Z,96781.13
2022-11-24T00:12:30.823Z,96782.08
2022-11-24T00:15:01.937Z,96779.69
2022-11-24T00:17:31.699Z,96783.28
2022-11-24T00:20:02.876Z,96782.00
2022-11-24T00:22:35.071Z,96785.89
2022-11-24T00:25:07.484Z,96791.31
2022-11-24T00:27:38.530Z,96788.87
2022-11-24T00:30:11.409Z,96786.83
2022-11-24T00:32:42.698Z,96788.34
2022-11-24T00:35:12.468Z,96788.02
2022-11-24T00:37:43.778Z,96789.70
2022-11-24T00:40:13.810Z,96788.29
2022-11-24T00:42:45.174Z,96788.84
2022-11-24T00:45:16.492Z,96795.47
2022-11-24T00:47:47.701Z,96796.48
2022-11-24T00:50:20.215Z,96801.90
2022-11-24T00:52:51.638Z,96802.11
2022-11-24T00:55:22.739Z,96802.98
2022-11-24T00:57:54.039Z,96802.50
2022-11-24T01:00:25.123Z,96803.21
2022-11-24T01:02:56.473Z,96804.55
2022-11-24T01:05:27.700Z,96798.75
2022-11-24T01:07:58.891Z,96799.18
2022-11-24T01:10:28.729Z,96802.80
2022-11-24T01:12:59.840Z,96798.16
2022-11-24T01:15:31.435Z,96800.09
2022-11-24T01:18:02.917Z,96798.98
2022-11-24T01:20:32.868Z,96796.91
2022-11-24T01:23:03.892Z,96797.58
2022-11-24T01:25:34.965Z,96797.02
2022-11-24T01:28:06.700Z,96797.33
2022-11-24T01:30:38.031Z,96798.29
2022-11-24T01:33:07.568Z,96795.55
2022-11-24T01:35:39.554Z,96795.95
2022-11-24T01:38:10.693Z,96795.55
2022-11-24T01:40:42.150Z,96796.75
2022-11-24T01:43:19.917Z,96796.20
2022-11-24T01:45:51.816Z,96803.08
2022-11-24T01:48:27.467Z,96806.36
2022-11-24T01:51:09.267Z,96803.73
2022-11-24T01:53:43.449Z,96802.16
2022-11-24T01:56:16.227Z,96800.20
2022-11-24T01:58:49.649Z,96799.14
2022-11-24T02:01:21.003Z,96796.56
2022-11-24T02:03:53.578Z,96791.44
2022-11-24T02:06:28.801Z,96787.95
2022-11-24T02:09:02.475Z,96788.40
2022-11-24T02:11:38.401Z,96783.76
2022-11-24T02:14:13.751Z,96780.98
2022-11-24T02:16:49.818Z,96778.45
2022-11-24T02:19:33.410Z,96777.59
2022-11-24T02:22:05.791Z,96776.86
2022-11-24T02:24:42.690Z,96775.04
2022-11-24T02:27:14.348Z,96770.77
2022-11-24T02:29:45.713Z,96774.67
2022-11-24T02:32:17.576Z,96778.41
2022-11-24T02:34:49.165Z,96788.52
2022-11-24T02:37:20.176Z,96790.27
2022-11-24T02:39:51.267Z,96789.84
2022-11-24T02:42:22.787Z,96790.11
2022-11-24T02:44:56.213Z,96795.45
2022-11-24T02:47:27.732Z,96794.66
2022-11-24T02:49:59.264Z,96796.24
2022-11-24T02:52:30.509Z,96798.42
2022-11-24T02:55:01.504Z,96800.72
2022-11-24T02:57:32.763Z,96800.38
2022-11-24T03:00:04.428Z,96802.72
2022-11-24T03:02:35.759Z,96803.05
2022-11-24T03:05:08.258Z,96801.70
2022-11-24T03:07:39.453Z,96801.08
2022-11-24T03:10:11.768Z,96799.27
2022-11-24T03:12:42.880Z,96796.84
2022-11-24T03:15:14.563Z,96796.70
2022-11-24T03:17:46.014Z,96801.67
2022-11-24T03:20:17.805Z,96803.76
2022-11-24T03:22:49.160Z,96806.55
2022-11-24T03:25:20.652Z,96807.45
2022-11-24T03:27:51.796Z,96812.27
2022-11-24T03:30:22.984Z,96817.43
2022-11-24T03:32:55.848Z,96818.35
2022-11-24T03:35:27.199Z,96825.34
2022-11-24T03:37:56.719Z,96828.02
2022-11-24T03:40:27.719Z,96837.69
2022-11-24T03:42:58.940Z,96841.48
2022-11-24T03:45:46.548Z,96841.98
2022-11-24T03:48:18.894Z,96840.67
2022-11-24T03:50:56.786Z,96836.58
2022-11-24T03:53:29.592Z,96840.98
2022-11-24T03:56:01.024Z,96843.97
2022-11-24T03:58:31.341Z,96845.17
2022-11-24T04:01:02.585Z,96847.86
2022-11-24T04:03:33.987Z,96848.27
2022-11-24T04:06:05.023Z,96848.05
2022-11-24T04:08:36.144Z,96852.66
2022-11-24T04:11:07.385Z,96856.96
2022-11-24T04:13:36.928Z,96849.77
2022-11-24T04:16:10.461Z,96855.65
2022-11-24T04:18:43.732Z,96857.23
2022-11-24T04:21:14.654Z,96858.85
2022-11-24T04:23:45.715Z,96861.02
2022-11-24T04:26:16.791Z,96866.23
2022-11-24T04:28:48.064Z,96863.80
2022-11-24T04:31:19.381Z,96864.36
2022-11-24T04:33:50.440Z,96872.57
2022-11-24T04:36:21.459Z,96874.64
2022-11-24T04:39:24.035Z,96879.35
2022-11-24T04:41:48.019Z,96880.72
2022-11-24T04:44:19.155Z,96887.86
2022-11-24T04:46:49.314Z,96889.48
2022-11-24T04:49:20.868Z,96891.00
2022-11-24T04:51:51.887Z,96892.81
2022-11-24T04:54:22.884Z,96895.18
2022-11-24T04:56:54.536Z,96899.39
2022-11-24T04:59:25.537Z,96904.55
2022-11-24T05:01:56.819Z,96911.98
2022-11-24T05:04:27.994Z,96916.94
2022-11-24T05:06:58.924Z,96920.45
2022-11-24T05:09:55.050Z,96924.50
2022-11-24T05:12:20.700Z,96922.61
2022-11-24T05:14:51.671Z,96920.98
2022-11-24T05:17:22.534Z,96926.25
2022-11-24T05:19:53.527Z,96920.15
2022-11-24T05:22:24.728Z,96930.60
2022-11-24T05:24:58.649Z,96932.42
2022-11-24T05:27:29.899Z,96937.54
2022-11-24T05:29:59.345Z,96942.11
2022-11-24T05:32:30.485Z,96946.32
2022-11-24T05:35:02.447Z,96947.34
2022-11-24T05:37:34.315Z,96945.31
2022-11-24T05:40:06.936Z,96946.57
2022-11-24T05:42:47.803Z,96952.10
2022-11-24T05:45:21.865Z,96951.80
2022-11-24T05:47:53.375Z,96954.29
2022-11-24T05:50:23.616Z,96957.12
2022-11-24T05:52:52.946Z,96958.83
2022-11-24T05:55:23.957Z,96957.95
2022-11-24T05:58:00.730Z,96956.68
2022-11-24T06:00:32.944Z,96957.42
2022-11-24T06:03:04.682Z,96962.69
2022-11-24T06:05:35.974Z,96963.60
2022-11-24T06:08:05.628Z,96970.60
2022-11-24T06:10:37.142Z,96970.04
2022-11-24T06:13:07.922Z,96966.19
2022-11-24T06:15:40.392Z,96967.50
2022-11-24T06:18:11.304Z,96969.83
2022-11-24T06:20:46.045Z,96973.48
2022-11-24T06:23:24.313Z,96976.38
2022-11-24T06:25:55.437Z,96977.94
2022-11-24T06:28:26.476Z,96979.11
2022-11-24T06:31:01.001Z,96981.55
2022-11-24T06:33:35.293Z,96982.20
2022-11-24T06:36:08.587Z,96985.30
2022-11-24T06:38:40.077Z,96987.89
2022-11-24T06:41:13.572Z,96988.86
2022-11-24T06:43:44.970Z,96995.50
2022-11-24T06:46:14.832Z,96996.71
2022-11-24T06:48:45.743Z,96996.36
2022-11-24T06:51:18.910Z,96998.40
2022-11-24T06:53:50.206Z,96995.70
2022-11-24T06:56:22.529Z,96996.77
2022-11-24T06:58:54.661Z,97000.27
2022-11-24T07:01:27.431Z,97002.90
2022-11-24T07:03:59.450Z,97010.60
2022-11-24T07:06:30.414Z,97017.71
2022-11-24T07:09:01.323Z,97023.19
2022-11-24T07:11:32.751Z,97025.48
2022-11-24T07:14:02.051Z,97026.89
2022-11-24T07:16:33.763Z,97022.36
2022-11-24T07:19:05.099Z,97026.07
2022-11-24T07:21:36.030Z,97031.04
2022-11-24T07:24:08.103Z,97034.39
2022-11-24T07:26:40.106Z,97044.59
2022-11-24T07:29:11.176Z,97047.23
2022-11-24T07:31:42.545Z,97049.27
2022-11-24T07:34:14.890Z,97049.46
2022-11-24T07:36:45.830Z,97058.48
2022-11-24T07:39:16.741Z,97059.45
2022-11-24T07:41:48.317Z,97064.21
2022-11-24T07:44:19.316Z,97064.15
2022-11-24T07:46:51.353Z,97069.77
2022-11-24T07:49:22.450Z,97069.56
2022-11-24T07:51:53.305Z,97065.39
2022-11-24T07:54:23.997Z,97062.48
2022-11-24T07:56:55.052Z,97061.81
2022-11-24T07:59:25.988Z,97059.17
2022-11-24T08:01:57.125Z,97056.88
2022-11-24T08:04:28.219Z,97065.58
2022-11-24T08:06:58.958Z,97066.91
2022-11-24T08:09:30.058Z,97067.19
2022-11-24T08:12:00.784Z,97065.07
2022-11-24T08:14:31.830Z,97070.21
2022-11-24T08:17:01.494Z,97072.49
2022-11-24T08:19:32.762Z,97077.74
2022-11-24T08:22:02.262Z,97078.50
2022-11-24T08:24:33.609Z,97078.11
2022-11-24T08:27:04.845Z,97078.42
2022-11-24T08:29:35.934Z,97081.07
2022-11-24T08:32:07.456Z,97078.80
2022-11-24T08:34:38.601Z,97076.68
2022-11-24T08:37:09.461Z,97081.52
2022-11-24T08:39:39.124Z,97080.21
2022-11-24T08:42:10.427Z,97083.59
2022-11-24T08:44:39.791Z,97087.14
2022-11-24T08:47:10.638Z,97082.16
2022-11-24T08:49:42.040Z,97087.33
2022-11-24T08:52:13.167Z,97085.20
2022-11-24T08:54:44.780Z,97087.98
2022-11-24T08:57:21.501Z,97086.77
2022-11-24T08:59:52.856Z,97088.63
2022-11-24T09:02:23.803Z,97088.98
2022-11-24T09:04:53.548Z,97094.98
2022-11-24T09:07:24.606Z,97095.52
2022-11-24T09:09:55.669Z,97098.23
2022-11-24T09:12:26.753Z,97096.31
2022-11-24T09:14:57.722Z,97095.41
2022-11-24T09:17:28.948Z,97094.93
2022-11-24T09:22:47.619Z,97103.41
2022-11-24T09:25:18.513Z,97102.00
2022-11-24T09:27:49.351Z,97096.38
2022-11-24T09:30:20.511Z,97096.75
2022-11-24T09:32:51.318Z,97091.95
2022-11-24T09:35:22.227Z,97093.23
2022-11-24T09:37:53.013Z,97091.92
2022-11-24T09:40:25.075Z,97089.82
2022-11-24T09:43:01.819Z,97094.38
2022-11-24T09:46:05.111Z,97094.02
2022-11-24T09:48:41.343Z,97096.36
2022-11-24T09:51:15.459Z,97104.52
2022-11-24T09:53:55.922Z,97097.67
2022-11-24T09:56:29.638Z,97098.04
2022-11-24T09:59:05.697Z,97093.08
2022-11-24T10:01:39.019Z,97097.46
2022-11-24T10:04:17.236Z,97096.41
2022-11-24T10:06:53.398Z,97099.88
2022-11-24T10:09:46.806Z,97097.86
2022-11-24T10:12:28.942Z,97098.08
2022-11-24T10:15:18.892Z,97092.98
2022-11-24T10:18:15.046Z,97094.07
2022-11-24T10:20:59.005Z,97092.66
2022-11-24T10:23:48.367Z,97089.63
2022-11-24T10:26:26.436Z,97090.08
2022-11-24T10:28:58.084Z,97091.45
2022-11-24T10:31:34.190Z,97093.45
2022-11-24T10:34:17.831Z,97093.41
2022-11-24T10:36:51.180Z,97090.38
2022-11-24T10:39:29.375Z,97092.74
2022-11-24T10:42:06.717Z,97093.40
2022-11-24T10:44:37.826Z,97089.36
2022-11-24T10:47:18.258Z,97090.35
2022-11-24T10:49:56.480Z,97090.30
2022-11-24T10:52:29.604Z,97090.59
2022-11-24T10:55:02.722Z,97089.34
2022-11-24T10:57:35.771Z,97089.38
2022-11-24T11:00:29.362Z,97088.75
2022-11-24T11:03:19.521Z,97093.15
2022-11-24T11:05:54.988Z,97096.38
2022-11-24T11:08:28.946Z,97095.77
2022-11-24T11:11:23.801Z,97095.04
2022-11-24T11:14:03.789Z,97094.94
2022-11-24T11:16:39.308Z,97089.86
2022-11-24T11:19:55.507Z,97093.36
2022-11-24T11:22:31.729Z,97091.02
2022-11-24T11:25:21.180Z,97093.86
2022-11-24T11:27:52.201Z,97093.83
2022-11-24T11:36:16.934Z,97097.76
2022-11-24T11:38:49.859Z,97097.86
2022-11-24T11:41:25.340Z,97100.54
2022-11-24T11:44:03.920Z,97099.93
2022-11-24T11:46:35.531Z,97102.42
2022-11-24T11:49:06.703Z,97106.84
2022-11-24T11:55:05.372Z,97107.48
2022-11-24T11:57:46.193Z,97105.86
2022-11-24T12:00:20.298Z,97109.39
2022-11-24T12:03:14.991Z,97113.74
2022-11-24T12:05:54.392Z,97114.86
2022-11-24T12:09:11.503Z,97121.45
2022-11-24T12:11:37.851Z,97123.80
2022-11-24T12:14:21.312Z,97122.67
2022-11-24T12:16:59.593Z,97124.02
2022-11-24T12:19:59.130Z,97123.11
2022-11-24T12:22:43.011Z,97127.40
2022-11-24T12:25:27.267Z,97128.61
2022-11-24T12:28:12.298Z,97130.20
2022-11-24T12:30:54.780Z,97130.61
2022-11-24T12:33:37.940Z,97132.11
2022-11-24T12:36:20.758Z,97134.40
2022-11-24T12:39:03.013Z,97137.02
2022-11-24T12:41:47.162Z,97131.90
2022-11-24T12:44:36.682Z,97134.78
2022-11-24T12:47:14.955Z,97135.84
2022-11-24T12:50:03.917Z,97137.75
2022-11-24T12:52:38.974Z,97143.34
2022-11-24T12:55:16.300Z,97145.65
2022-11-24T12:57:55.926Z,97147.23
2022-11-24T13:00:35.648Z,97149.59
2022-11-24T13:03:26.278Z,97152.00
2022-11-24T13:06:02.461Z,97148.36
2022-11-24T13:08:36.804Z,97151.45
2022-11-24T13:11:41.988Z,97154.89
2022-11-24T13:14:19.467Z,97159.89
2022-11-24T13:17:27.957Z,97162.59
2022-11-24T13:19:50.905Z,97167.91
2022-11-24T13:22:27.393Z,97168.55
2022-11-24T13:25:17.467Z,97172.09
2022-11-24T13:27:52.969Z,97178.53
2022-11-24T13:30:56.273Z,97185.21
2022-11-24T13:33:38.019Z,97184.75
2022-11-24T13:36:35.587Z,97178.91
2022-11-24T13:39:19.605Z,97182.52
2022-11-24T13:42:10.516Z,97183.42
2022-11-24T13:45:03.071Z,97187.95
2022-11-24T13:47:37.589Z,97187.77
2022-11-24T13:50:11.661Z,97191.81
2022-11-24T13:52:52.074Z,97191.51
2022-11-24T13:55:30.653Z,97190.26
2022-11-24T13:58:18.674Z,97195.13
2022-11-24T14:01:06.779Z,97197.65
2022-11-24T14:03:47.566Z,97201.36
2022-11-24T14:06:35.474Z,97201.24
2022-11-24T14:09:21.077Z,97201.60
2022-11-24T14:12:01.289Z,97200.02
2022-11-24T14:14:32.259Z,97200.98
2022-11-24T14:17:18.032Z,97199.95
2022-11-24T14:19:51.340Z,97199.91
2022-11-24T14:22:24.423Z,97203.62
2022-11-24T14:24:57.378Z,97203.42
2022-11-24T14:27:33.463Z,97203.91
2022-11-24T14:30:06.013Z,97207.91
2022-11-24T14:32:40.367Z,97208.32
2022-11-24T14:35:21.632Z,97213.30
2022-11-24T14:37:52.769Z,97216.21
2022-11-24T14:40:45.084Z,97213.10
2022-11-24T14:43:27.128Z,97218.48
2022-11-24T14:46:00.646Z,97220.29
2022-11-24T14:48:37.012Z,97225.48
2022-11-24T14:51:14.647Z,97228.98
2022-11-24T14:53:48.101Z,97231.09
2022-11-24T14:56:30.604Z,97230.85
2022-11-24T14:59:01.609Z,97235.11
2022-11-24T15:01:32.872Z,97240.36
2022-11-24T15:07:19.910Z,97250.06
2022-11-24T15:09:57.982Z,97245.70
2022-11-24T15:12:34.505Z,97249.19
2022-11-24T15:15:08.922Z,97250.83
2022-11-24T15:17:46.714Z,97250.05
2022-11-24T15:20:25.985Z,97248.40
2022-11-24T15:23:23.991Z,97251.20
2022-11-24T15:25:55.433Z,97255.64
2022-11-24T15:28:26.755Z,97254.63
2022-11-24T15:31:01.287Z,97260.16
2022-11-24T15:33:33.098Z,97262.98
2022-11-24T15:36:04.372Z,97270.02
2022-11-24T15:38:35.766Z,97267.50
2022-11-24T15:41:20.748Z,97270.92
2022-11-24T15:43:58.769Z,97275.71
2022-11-24T15:46:30.682Z,97276.52
2022-11-24T15:49:01.543Z,97282.43
2022-11-24T15:51:32.360Z,97287.46
2022-11-24T15:54:03.577Z,97290.45
2022-11-24T15:56:34.211Z,97289.52
2022-11-24T15:59:05.959Z,97287.58
2022-11-24T16:01:37.015Z,97290.24
2022-11-24T16:04:07.795Z,97295.16
2022-11-24T16:06:38.632Z,97295.12
2022-11-24T16:09:13.825Z,97293.95
2022-11-24T16:11:45.055Z,97295.69
2022-11-24T16:14:16.153Z,97302.38
2022-11-24T16:16:45.632Z,97301.39
2022-11-24T16:19:16.704Z,97305.89
2022-11-24T16:21:50.003Z,97308.88
2022-11-24T16:24:21.298Z,97309.88
2022-11-24T16:26:52.248Z,97309.91
2022-11-24T16:29:24.324Z,97310.34
2022-11-24T16:31:56.059Z,97314.17
2022-11-24T16:34:27.155Z,97323.84
2022-11-24T16:36:56.767Z,97328.77
2022-11-24T16:39:28.127Z,97327.02
2022-11-24T16:41:59.105Z,97324.90
2022-11-24T16:44:30.144Z,97327.74
2022-11-24T16:47:01.493Z,97327.88
2022-11-24T16:49:32.638Z,97333.51
2022-11-24T16:52:02.193Z,97331.81
2022-11-24T16:54:33.467Z,97335.36
2022-11-24T16:57:04.802Z,97332.73
2022-11-24T16:59:35.783Z,97341.53
2022-11-24T17:02:05.449Z,97347.50
2022-11-24T17:04:36.649Z,97349.30
2022-11-24T17:07:06.143Z,97352.23
2022-11-24T17:09:40.628Z,97353.29
2022-11-24T17:12:11.937Z,97352.07
2022-11-24T17:14:44.338Z,97352.33
2022-11-24T17:17:20.037Z,97351.45
2022-11-24T17:19:51.005Z,97354.27
2022-11-24T17:22:22.005Z,97351.73
2022-11-24T17:24:53.161Z,97352.99
2022-11-24T17:27:24.065Z,97353.91
2022-11-24T17:29:53.558Z,97357.16
2022-11-24T17:32:24.512Z,97360.40
2022-11-24T17:34:55.801Z,97362.62
2022-11-24T17:37:26.810Z,97361.24
2022-11-24T17:40:20.813Z,97362.94
2022-11-24T17:42:48.813Z,97365.13
2022-11-24T17:45:19.972Z,97371.42
2022-11-24T17:47:50.962Z,97368.77
2022-11-24T17:50:25.686Z,97372.11
2022-11-24T17:52:57.430Z,97373.77
2022-11-24T17:55:28.457Z,97372.45
2022-11-24T17:58:00.002Z,97375.09
2022-11-24T18:00:31.118Z,97381.25
2022-11-24T18:03:01.361Z,97387.61
2022-11-24T18:05:36.263Z,97392.42
2022-11-24T18:08:07.746Z,97390.32
2022-11-24T18:10:38.638Z,97393.52
2022-11-24T18:13:08.260Z,97392.92
2022-11-24T18:15:39.183Z,97396.31
2022-11-24T18:18:10.117Z,97402.40
2022-11-24T18:20:41.084Z,97401.53
2022-11-24T18:23:12.109Z,97397.85
2022-11-24T18:25:43.150Z,97398.30
2022-11-24T18:28:14.078Z,97404.38
2022-11-24T18:30:45.030Z,97410.67
2022-11-24T18:33:16.113Z,97411.60
2022-11-24T18:35:45.883Z,97410.05
2022-11-24T18:38:16.920Z,97408.27
2022-11-24T18:40:53.117Z,97409.47
2022-11-24T18:43:24.474Z,97412.86
2022-11-24T18:45:55.699Z,97414.33
2022-11-24T18:48:27.313Z,97405.02
2022-11-24T18:50:59.442Z,97404.94
2022-11-24T18:53:30.682Z,97401.64
2022-11-24T18:56:00.705Z,97399.65
2022-11-24T18:58:30.900Z,97399.48
2022-11-24T19:01:10.437Z,97401.38
2022-11-24T19:03:48.058Z,97404.92
2022-11-24T19:06:21.787Z,97407.61
2022-11-24T19:08:56.021Z,97407.63
2022-11-24T19:11:29.143Z,97412.39
2022-11-24T19:14:00.531Z,97410.39
2022-11-24T19:16:31.681Z,97408.45
2022-11-24T19:19:02.625Z,97417.18
2022-11-24T19:21:35.509Z,97421.81
2022-11-24T19:24:10.030Z,97421.23
2022-11-24T19:26:41.629Z,97422.50
2022-11-24T19:29:13.022Z,97424.58
2022-11-24T19:31:43.939Z,97426.91
2022-11-24T19:34:15.273Z,97423.51
2022-11-24T19:36:46.400Z,97426.72
2022-11-24T19:39:17.788Z,97428.83
2022-11-24T19:41:48.600Z,97435.70
2022-11-24T19:44:20.241Z,97438.93
2022-11-24T19:46:51.210Z,97434.02
2022-11-24T19:49:20.873Z,97438.13
2022-11-24T19:51:51.934Z,97439.84
2022-11-24T19:54:22.901Z,97441.16
2022-11-24T19:56:56.816Z,97437.17
2022-11-24T19:59:27.861Z,97438.05
2022-11-24T20:01:59.330Z,97441.58
2022-11-24T20:04:32.948Z,97447.85
2022-11-24T20:07:04.203Z,97452.90
2022-11-24T20:09:35.107Z,97453.86
2022-11-24T20:12:07.088Z,97455.81
2022-11-24T20:14:38.037Z,97462.09
2022-11-24T20:17:14.160Z,97466.94
2022-11-24T20:19:45.215Z,97470.21
2022-11-24T20:22:16.178Z,97478.52
2022-11-24T20:24:47.184Z,97477.30
2022-11-24T20:27:18.124Z,97485.48
2022-11-24T20:29:49.200Z,97487.33
2022-11-24T20:32:20.875Z,97491.28
2022-11-24T20:34:51.703Z,97498.54
2022-11-24T20:40:13.496Z,97494.62
2022-11-24T20:42:44.427Z,97492.71
2022-11-24T20:45:15.181Z,97495.86
2022-11-24T20:47:46.070Z,97495.33
2022-11-24T20:50:17.155Z,97492.01
2022-11-24T20:52:47.945Z,97488.65
2022-11-24T20:55:19.065Z,97491.97
2022-11-24T20:57:49.795Z,97494.21
2022-11-24T21:00:21.188Z,97495.02
2022-11-24T21:02:52.057Z,97503.09
2022-11-24T21:05:22.946Z,97507.86
2022-11-24T21:07:53.763Z,97508.77
2022-11-24T21:10:24.798Z,97510.66
2022-11-24T21:12:55.859Z,97507.23
2022-11-24T21:15:26.758Z,97508.13
2022-11-24T21:17:57.778Z,97512.95
2022-11-24T21:20:28.908Z,97514.16
2022-11-24T21:22:59.956Z,97515.02
2022-11-24T21:25:31.823Z,97515.78
2022-11-24T21:28:03.230Z,97515.73
2022-11-24T21:30:37.369Z,97513.02
2022-11-24T21:33:09.235Z,97515.79
2022-11-24T21:35:40.196Z,97518.70
2022-11-24T21:38:11.100Z,97520.02
2022-11-24T21:40:44.790Z,97515.56
2022-11-24T21:43:19.801Z,97522.43
2022-11-24T21:45:50.743Z,97525.90
2022-11-24T21:48:20.288Z,97525.23
2022-11-24T21:50:51.191Z,97531.03
2022-11-24T21:53:20.975Z,97532.60
2022-11-24T21:55:58.320Z,97532.23
2022-11-24T21:58:32.907Z,97535.79
2022-11-24T22:01:06.371Z,97537.67
2022-11-24T22:03:37.495Z,97541.88
2022-11-24T22:06:09.285Z,97540.09
2022-11-24T22:08:40.444Z,97537.42
2022-11-24T22:11:15.218Z,97541.15
2022-11-24T22:13:46.677Z,97543.72
2022-11-24T22:16:19.276Z,97542.80
2022-11-24T22:18:51.225Z,97539.98
2022-11-24T22:21:24.155Z,97542.42
2022-11-24T22:23:55.541Z,97544.25
2022-11-24T22:26:27.588Z,97544.05
2022-11-24T22:28:59.779Z,97545.42
2022-11-24T22:31:32.457Z,97543.23
2022-11-24T22:34:03.840Z,97544.20
2022-11-24T22:36:36.705Z,97547.88
2022-11-24T22:39:12.315Z,97549.20
2022-11-24T22:41:43.248Z,97553.05
2022-11-24T22:44:14.181Z,97559.48
2022-11-24T22:46:45.115Z,97564.45
2022-11-24T22:49:16.155Z,97570.17
2022-11-24T22:51:47.051Z,97569.39
2022-11-24T22:54:17.928Z,97569.34
2022-11-24T22:56:49.107Z,97575.80
2022-11-24T22:59:20.409Z,97579.98
2022-11-24T23:01:49.876Z,97578.31
2022-11-24T23:04:21.119Z,97576.95
2022-11-24T23:06:52.248Z,97576.80
2022-11-24T23:09:23.816Z,97575.77
2022-11-24T23:11:54.775Z,97574.39
2022-11-24T23:14:26.753Z,97573.86
2022-11-24T23:17:01.027Z,97574.35
2022-11-24T23:19:32.307Z,97574.39
2022-11-24T23:22:01.757Z,97577.44
2022-11-24T23:24:37.899Z,97578.07
2022-11-24T23:27:09.196Z,97584.20
2022-11-24T23:29:39.925Z,97586.55
2022-11-24T23:32:11.467Z,97585.77
2022-11-24T23:34:42.487Z,97580.98
2022-11-24T23:37:13.732Z,97581.30
2022-11-24T23:39:44.692Z,97583.10
2022-11-24T23:42:15.632Z,97582.73
2022-11-24T23:44:46.701Z,97591.95
2022-11-24T23:47:17.589Z,97591.29
2022-11-24T23:49:48.663Z,97591.19
2022-11-24T23:52:18.004Z,97588.58
2022-11-24T23:57:37.952Z,97584.84
